Time;durP1;ratioP1;P1;durP2;ratioP2;P2;SDS_P1;SDS_P2;PMS_P1;PMS_P2;Temp;Humidity;BMP_temperature;BMP_pressure;BME280_temperature;BME280_humidity;BME280_pressure;Samples;Min_cycle;Max_cycle;Signal;HPM_P1;HPM_P2
2022/06/05 00:00:12;;;;;;;17.30;6.93;;;13.20;99.90;;;;;;5053648;28;20104;-79
2022/06/05 00:03:12;;;;;;;14.13;7.13;;;13.20;99.90;;;;;;5053496;28;20032;-79
2022/06/05 00:05:53;;;;;;;17.75;7.70;;;13.10;99.90;;;;;;5048421;28;20051;-80
2022/06/05 00:08:32;;;;;;;21.02;8.02;;;13.10;99.90;;;;;;5053034;28;20040;-79
2022/06/05 00:11:00;;;;;;;12.88;6.50;;;13.10;99.90;;;;;;5053329;28;20064;-80
2022/06/05 00:13:41;;;;;;;26.38;7.55;;;13.10;99.90;;;;;;5053246;28;20025;-80
2022/06/05 00:16:08;;;;;;;16.95;7.03;;;13.20;99.90;;;;;;5053134;28;20071;-80
2022/06/05 00:18:36;;;;;;;21.80;7.03;;;13.10;99.90;;;;;;5053272;28;20021;-80
2022/06/05 00:21:03;;;;;;;9.50;6.43;;;13.20;99.90;;;;;;5053037;28;20107;-80
2022/06/05 00:23:30;;;;;;;10.38;6.85;;;13.20;99.90;;;;;;5052855;28;20025;-80
2022/06/05 00:26:00;;;;;;;17.42;7.20;;;13.10;99.90;;;;;;5053181;28;20103;-80
2022/06/05 00:28:35;;;;;;;17.75;6.55;;;13.20;99.90;;;;;;5053157;28;20090;-80
2022/06/05 00:31:15;;;;;;;15.88;8.00;;;13.20;99.90;;;;;;5053071;28;20029;-80
2022/06/05 00:33:41;;;;;;;12.23;6.78;;;13.20;99.90;;;;;;5052673;28;20044;-79
2022/06/05 00:36:45;;;;;;;13.75;6.05;;;13.30;99.90;;;;;;5052934;28;20477;-79
2022/06/05 00:39:19;;;;;;;17.48;5.80;;;13.20;99.90;;;;;;5052754;28;20029;-79
2022/06/05 00:42:06;;;;;;;15.85;6.63;;;13.20;99.90;;;;;;5052686;28;20028;-79
2022/06/05 00:44:37;;;;;;;14.35;6.10;;;13.20;99.90;;;;;;5052771;28;20104;-79
2022/06/05 00:47:04;;;;;;;14.27;6.28;;;13.20;99.90;;;;;;5052812;28;20409;-80
2022/06/05 00:49:41;;;;;;;13.85;6.53;;;13.20;99.90;;;;;;5052623;28;20037;-79
2022/06/05 00:52:10;;;;;;;13.77;5.90;;;13.20;99.90;;;;;;5052581;28;20075;-80
2022/06/05 00:54:36;;;;;;;10.10;6.13;;;13.20;99.90;;;;;;5052361;28;20429;-80
2022/06/05 00:57:07;;;;;;;12.85;5.68;;;13.20;99.90;;;;;;5052444;28;20039;-79
2022/06/05 00:59:33;;;;;;;11.32;5.82;;;13.20;99.90;;;;;;5052570;28;20021;-79
2022/06/05 01:01:59;;;;;;;12.23;5.82;;;13.30;99.90;;;;;;5052456;28;20453;-80
2022/06/05 01:04:25;;;;;;;10.15;5.78;;;13.30;99.90;;;;;;5052405;28;20044;-79
2022/06/05 01:06:52;;;;;;;10.00;5.72;;;13.30;99.90;;;;;;5052305;28;20028;-79
2022/06/05 01:09:19;;;;;;;12.88;6.05;;;13.30;99.90;;;;;;5051663;28;20060;-80
2022/06/05 01:11:50;;;;;;;10.13;5.47;;;13.30;99.90;;;;;;5052077;28;20029;-80
2022/06/05 01:14:22;;;;;;;;;;;13.30;99.90;;;;;;5052652;28;20359;-80
2022/06/05 01:17:35;;;;;;;11.00;5.57;;;13.40;99.90;;;;;;5052041;28;20385;-80
2022/06/05 01:20:26;;;;;;;7.80;5.10;;;13.30;99.90;;;;;;5051958;28;20478;-80
2022/06/05 01:22:54;;;;;;;11.13;5.45;;;13.30;99.90;;;;;;5051828;28;20405;-80
2022/06/05 01:25:36;;;;;;;9.68;5.25;;;13.30;99.90;;;;;;5051851;28;20478;-80
2022/06/05 01:28:11;;;;;;;11.93;5.18;;;13.40;99.90;;;;;;5051715;28;20101;-79
2022/06/05 01:31:21;;;;;;;12.23;5.47;;;13.30;99.90;;;;;;5051667;28;20044;-80
2022/06/05 01:33:57;;;;;;;11.32;5.47;;;13.30;99.90;;;;;;5038726;28;20044;-82
2022/06/05 01:36:33;;;;;;;8.85;4.82;;;13.40;99.90;;;;;;5051639;28;20051;-80
2022/06/05 01:39:12;;;;;;;9.77;4.15;;;13.40;99.90;;;;;;5070019;22;20537;-90
2022/06/05 01:41:52;;;;;;;7.65;5.03;;;13.40;99.90;;;;;;5032478;28;20049;-88
2022/06/05 01:44:47;;;;;;;8.18;4.60;;;13.30;99.90;;;;;;5032161;28;20987;-87
2022/06/05 01:47:23;;;;;;;7.60;5.03;;;13.40;99.90;;;;;;5030129;28;20072;-87
2022/06/05 01:49:58;;;;;;;8.25;5.15;;;13.30;99.90;;;;;;5032123;28;20510;-86
2022/06/05 01:53:03;;;;;;;7.47;4.13;;;13.30;99.90;;;;;;5032258;28;20056;-86
2022/06/05 01:55:47;;;;;;;11.00;4.78;;;13.30;99.90;;;;;;5031840;28;20017;-86
2022/06/05 01:58:16;;;;;;;11.68;5.50;;;13.30;99.90;;;;;;5031766;28;20033;-88
2022/06/05 02:00:46;;;;;;;8.35;5.70;;;13.30;99.90;;;;;;5031884;28;20068;-87
2022/06/05 02:03:24;;;;;;;8.70;4.03;;;13.30;99.90;;;;;;5031261;28;20029;-87
2022/06/05 02:06:14;;;;;;;8.27;4.38;;;13.30;99.90;;;;;;5031671;28;20040;-86
2022/06/05 02:08:45;;;;;;;7.45;4.35;;;13.30;99.90;;;;;;5031803;28;20018;-87
2022/06/05 02:11:23;;;;;;;12.43;5.35;;;13.30;99.90;;;;;;5032151;28;20034;-88
2022/06/05 02:13:53;;;;;;;13.27;4.97;;;13.40;99.90;;;;;;5031851;28;20036;-88
2022/06/05 02:16:19;;;;;;;11.23;5.97;;;13.40;99.90;;;;;;5031880;28;20017;-86
2022/06/05 02:18:45;;;;;;;10.25;5.40;;;13.30;99.90;;;;;;5013895;28;20025;-86
2022/06/05 02:21:11;;;;;;;10.93;4.82;;;13.30;99.90;;;;;;5031787;28;20032;-86
2022/06/05 02:23:39;;;;;;;9.45;4.88;;;13.30;99.90;;;;;;5031560;28;20105;-86
2022/06/05 02:26:08;;;;;;;11.07;5.57;;;13.30;99.90;;;;;;5031539;28;20108;-86
2022/06/05 02:28:34;;;;;;;9.57;4.72;;;13.30;99.90;;;;;;5031727;28;20045;-87
2022/06/05 02:31:33;;;;;;;7.30;4.63;;;13.30;99.90;;;;;;5013762;28;20076;-87
2022/06/05 02:34:18;;;;;;;9.73;4.88;;;13.30;99.90;;;;;;5031697;28;20152;-86
2022/06/05 02:37:10;;;;;;;12.25;5.05;;;13.30;99.90;;;;;;5031378;28;20040;-86
2022/06/05 02:39:49;;;;;;;;;;;13.30;99.90;;;;;;5031732;28;20034;-84
2022/06/05 02:42:20;;;;;;;14.55;5.78;;;13.40;99.90;;;;;;5031392;28;19905;-85
2022/06/05 02:45:01;;;;;;;13.18;6.78;;;13.40;99.90;;;;;;5031447;28;20026;-85
2022/06/05 02:47:38;;;;;;;15.48;6.07;;;13.40;99.90;;;;;;5031198;28;20034;-85
2022/06/05 02:50:36;;;;;;;14.38;5.93;;;13.40;99.90;;;;;;5013415;28;20037;-86
2022/06/05 02:53:05;;;;;;;12.68;6.00;;;13.40;99.90;;;;;;5031236;28;20088;-86
2022/06/05 02:55:31;;;;;;;13.48;5.95;;;13.40;99.90;;;;;;5031117;28;20022;-86
2022/06/05 02:57:57;;;;;;;14.20;6.20;;;13.40;99.90;;;;;;5013500;28;20390;-85
2022/06/05 03:00:28;;;;;;;14.15;6.82;;;13.40;99.90;;;;;;5031196;28;20479;-86
2022/06/05 03:05:40;;;;;;;14.63;6.18;;;13.40;99.90;;;;;;5031466;28;20028;-86
2022/06/05 03:08:08;;;;;;;13.02;6.80;;;13.40;99.90;;;;;;5031008;28;20048;-85
2022/06/05 03:10:34;;;;;;;13.10;6.95;;;13.40;99.90;;;;;;5031210;28;20033;-86
2022/06/05 03:13:01;;;;;;;14.35;6.53;;;13.40;99.90;;;;;;5031298;28;20105;-85
2022/06/05 03:15:27;;;;;;;17.50;7.05;;;13.50;99.90;;;;;;5032822;28;20075;-85
2022/06/05 03:17:54;;;;;;;15.75;7.40;;;13.50;99.90;;;;;;5033705;28;20032;-86
2022/06/05 03:20:19;;;;;;;19.23;7.03;;;13.50;99.90;;;;;;5034464;28;20061;-86
2022/06/05 03:22:45;;;;;;;15.95;7.07;;;13.50;99.90;;;;;;5034572;28;20076;-85
2022/06/05 03:25:16;;;;;;;20.42;7.28;;;13.40;99.90;;;;;;5034262;28;20029;-86
2022/06/05 03:27:41;;;;;;;15.38;7.75;;;13.50;99.90;;;;;;5034622;28;20076;-86
2022/06/05 03:30:08;;;;;;;17.52;8.18;;;13.50;99.90;;;;;;5034255;28;20045;-85
2022/06/05 03:32:33;;;;;;;18.13;8.07;;;13.50;99.90;;;;;;5034363;28;20033;-85
2022/06/05 03:34:59;;;;;;;17.63;7.97;;;13.50;99.90;;;;;;5034141;28;20029;-85
2022/06/05 03:37:25;;;;;;;18.35;8.50;;;13.50;99.90;;;;;;5034643;28;20053;-86
2022/06/05 03:39:51;;;;;;;17.80;8.00;;;13.50;99.90;;;;;;5033992;28;20111;-85
2022/06/05 03:42:17;;;;;;;18.88;9.38;;;13.50;99.90;;;;;;5034149;28;20483;-84
2022/06/05 03:44:43;;;;;;;18.83;8.35;;;13.50;99.90;;;;;;5034254;28;20036;-85
2022/06/05 03:47:10;;;;;;;19.85;8.25;;;13.50;99.90;;;;;;5034113;28;20033;-85
2022/06/05 03:49:36;;;;;;;16.77;7.80;;;13.50;99.90;;;;;;5033965;28;20040;-85
2022/06/05 03:52:04;;;;;;;16.38;8.45;;;13.50;99.90;;;;;;5034027;28;20120;-84
2022/06/05 03:54:30;;;;;;;24.67;9.73;;;13.60;99.90;;;;;;5033574;28;20022;-84
2022/06/05 03:56:56;;;;;;;22.95;8.75;;;13.60;99.90;;;;;;5016237;28;20037;-84
2022/06/05 03:59:21;;;;;;;22.60;9.18;;;13.50;99.90;;;;;;5033626;28;20025;-85
2022/06/05 04:01:48;;;;;;;21.45;9.27;;;13.60;99.90;;;;;;5033794;28;20079;-85
2022/06/05 04:04:14;;;;;;;23.45;9.23;;;13.50;99.90;;;;;;5033726;28;20386;-85
2022/06/05 04:06:40;;;;;;;24.23;9.18;;;13.60;99.90;;;;;;5015900;28;20029;-85
2022/06/05 04:09:08;;;;;;;21.23;10.02;;;13.60;99.90;;;;;;5015680;28;20029;-84
2022/06/05 04:11:36;;;;;;;24.70;9.63;;;13.60;99.90;;;;;;5033580;28;20109;-85
2022/06/05 04:14:03;;;;;;;20.75;8.73;;;13.60;99.90;;;;;;5033647;28;20049;-85
2022/06/05 04:16:31;;;;;;;27.88;10.60;;;13.60;99.90;;;;;;5033731;28;20079;-85
2022/06/05 04:18:58;;;;;;;20.02;8.65;;;13.60;99.90;;;;;;5033498;28;20072;-87
2022/06/05 04:21:26;;;;;;;24.67;10.95;;;13.50;99.90;;;;;;5033369;28;20028;-85
2022/06/05 04:23:53;;;;;;;26.42;10.43;;;13.50;99.90;;;;;;5033007;28;20067;-84
2022/06/05 04:26:26;;;;;;;26.17;10.70;;;13.50;99.90;;;;;;5032974;28;20021;-85
2022/06/05 04:28:53;;;;;;;25.65;10.73;;;13.50;99.90;;;;;;5033008;28;20036;-84
2022/06/05 04:31:29;;;;;;;24.52;11.05;;;13.50;99.90;;;;;;5033046;28;20034;-85
2022/06/05 04:33:57;;;;;;;23.55;10.07;;;13.50;99.90;;;;;;5033107;28;20018;-85
2022/06/05 04:36:23;;;;;;;26.30;10.98;;;13.50;99.90;;;;;;5033256;28;20112;-85
2022/06/05 04:38:49;;;;;;;21.40;10.52;;;13.50;99.90;;;;;;5033363;28;20029;-85
2022/06/05 04:41:16;;;;;;;23.80;10.05;;;13.50;99.90;;;;;;5033196;28;20099;-85
2022/06/05 04:43:42;;;;;;;27.45;10.32;;;13.60;99.90;;;;;;5033145;28;20098;-84
2022/06/05 04:46:08;;;;;;;20.75;10.50;;;13.60;99.90;;;;;;5032884;28;20017;-84
2022/06/05 04:48:34;;;;;;;19.33;9.63;;;13.60;99.90;;;;;;5032844;28;20025;-85
2022/06/05 04:51:07;;;;;;;21.83;10.43;;;13.60;99.90;;;;;;5032716;28;20390;-84
2022/06/05 04:53:33;;;;;;;23.42;10.68;;;13.70;99.90;;;;;;5032620;28;20105;-84
2022/06/05 04:56:03;;;;;;;25.67;10.25;;;13.70;99.90;;;;;;5032837;28;20033;-84
2022/06/05 04:58:29;;;;;;;25.75;10.98;;;13.70;99.90;;;;;;5032677;28;20025;-85
2022/06/05 05:00:55;;;;;;;25.23;9.82;;;13.70;99.90;;;;;;5032504;28;20021;-84
2022/06/05 05:03:21;;;;;;;21.13;9.85;;;13.70;99.90;;;;;;5032447;28;20018;-84
2022/06/05 05:05:47;;;;;;;24.27;9.80;;;13.70;99.90;;;;;;5032644;28;20047;-84
2022/06/05 05:08:12;;;;;;;24.33;10.45;;;13.70;99.90;;;;;;5032446;28;20025;-83
2022/06/05 05:10:38;;;;;;;30.45;10.80;;;13.70;99.90;;;;;;5014388;28;20040;-83
2022/06/05 05:13:04;;;;;;;23.27;10.77;;;13.70;99.90;;;;;;5014651;28;20026;-83
2022/06/05 05:15:30;;;;;;;30.77;10.25;;;13.70;99.90;;;;;;5032362;28;20022;-83
2022/06/05 05:17:57;;;;;;;23.60;9.52;;;13.80;99.90;;;;;;5031997;28;20035;-86
2022/06/05 05:20:25;;;;;;;27.60;10.70;;;13.80;99.90;;;;;;5032158;28;20072;-84
2022/06/05 05:22:51;;;;;;;30.90;12.45;;;13.70;99.90;;;;;;5032296;28;20029;-84
2022/06/05 05:25:17;;;;;;;26.30;10.43;;;13.80;99.90;;;;;;5014367;28;20025;-83
2022/06/05 05:27:42;;;;;;;25.40;10.25;;;13.70;99.90;;;;;;5014207;28;20021;-83
2022/06/05 05:30:10;;;;;;;24.33;10.48;;;13.80;99.90;;;;;;5031753;28;20040;-83
2022/06/05 05:32:36;;;;;;;19.60;10.23;;;13.80;99.90;;;;;;5014380;28;20022;-84
2022/06/05 05:35:02;;;;;;;28.40;11.23;;;13.70;99.90;;;;;;5032227;28;20025;-83
2022/06/05 05:37:28;;;;;;;26.63;11.55;;;13.70;99.90;;;;;;5031811;28;20091;-83
2022/06/05 05:42:38;;;;;;;24.20;10.77;;;13.70;99.90;;;;;;5031823;28;20071;-83
2022/06/05 05:45:05;;;;;;;24.20;10.75;;;13.80;99.90;;;;;;5032013;28;20112;-83
2022/06/05 05:47:32;;;;;;;25.10;10.77;;;13.90;99.90;;;;;;5031846;28;20029;-83
2022/06/05 05:50:05;;;;;;;26.48;10.77;;;14.00;99.90;;;;;;5031888;28;20068;-84
2022/06/05 05:52:32;;;;;;;20.65;10.20;;;14.00;99.90;;;;;;5031671;28;20033;-82
2022/06/05 05:54:58;;;;;;;25.73;11.05;;;13.90;99.90;;;;;;5031429;28;20091;-83
2022/06/05 05:57:23;;;;;;;27.35;11.07;;;14.00;99.90;;;;;;5031706;28;20421;-84
2022/06/05 05:59:49;;;;;;;29.48;10.82;;;14.00;99.90;;;;;;5014272;28;20038;-82
2022/06/05 06:02:21;;;;;;;25.95;10.40;;;14.00;99.90;;;;;;5031836;28;20021;-83
2022/06/05 06:04:48;;;;;;;27.23;10.77;;;14.00;99.90;;;;;;5031843;28;20029;-83
2022/06/05 06:07:14;;;;;;;23.05;10.82;;;14.00;99.90;;;;;;5031455;28;20029;-82
2022/06/05 06:09:41;;;;;;;30.13;11.07;;;14.00;99.90;;;;;;5031434;28;20108;-83
2022/06/05 06:12:08;;;;;;;25.63;10.73;;;14.00;99.90;;;;;;5031721;28;20067;-82
2022/06/05 06:14:34;;;;;;;23.40;10.48;;;14.10;99.90;;;;;;5031847;28;20021;-83
2022/06/05 06:17:00;;;;;;;25.25;10.25;;;14.10;99.90;;;;;;5031603;28;20017;-83
2022/06/05 06:19:26;;;;;;;23.08;9.60;;;14.20;99.90;;;;;;5031400;28;20032;-83
2022/06/05 06:21:52;;;;;;;20.95;9.43;;;14.30;99.90;;;;;;5031602;28;20030;-83
2022/06/05 06:24:17;;;;;;;23.98;11.55;;;14.30;99.90;;;;;;5031289;28;20437;-82
2022/06/05 06:26:43;;;;;;;24.65;10.18;;;14.30;99.90;;;;;;5031590;28;20108;-82
2022/06/05 06:29:10;;;;;;;22.05;9.98;;;14.30;99.90;;;;;;5031264;28;20037;-82
2022/06/05 06:31:40;;;;;;;25.27;10.18;;;14.30;99.90;;;;;;5031310;28;20029;-82
2022/06/05 06:34:06;;;;;;;31.27;10.70;;;14.30;99.90;;;;;;5031135;28;20022;-83
2022/06/05 06:36:35;;;;;;;26.42;9.85;;;14.30;99.90;;;;;;5031138;28;20045;-82
2022/06/05 06:39:01;;;;;;;22.27;10.23;;;14.40;99.90;;;;;;5031438;28;20494;-82
2022/06/05 06:41:27;;;;;;;26.63;12.10;;;14.40;99.90;;;;;;5031314;28;20036;-82
2022/06/05 06:43:53;;;;;;;23.95;10.73;;;14.50;99.90;;;;;;5013922;28;20026;-82
2022/06/05 06:46:19;;;;;;;21.58;9.88;;;14.60;99.90;;;;;;5031304;28;20453;-82
2022/06/05 06:48:46;;;;;;;31.67;11.18;;;14.60;99.90;;;;;;5031659;28;20026;-81
2022/06/05 06:51:12;;;;;;;26.45;10.10;;;14.60;99.90;;;;;;5034984;28;20497;-84
2022/06/05 06:53:39;;;;;;;29.65;11.15;;;14.60;99.90;;;;;;5035048;28;20017;-82
2022/06/05 06:56:13;;;;;;;34.92;11.05;;;14.70;99.90;;;;;;5034803;28;20109;-81
2022/06/05 06:58:40;;;;;;;26.55;11.30;;;14.80;99.90;;;;;;5035003;28;20030;-82
2022/06/05 07:01:07;;;;;;;24.63;9.88;;;14.80;99.90;;;;;;5034962;28;20025;-82
2022/06/05 07:03:34;;;;;;;25.95;10.30;;;14.80;99.90;;;;;;5034878;28;20101;-82
2022/06/05 07:06:02;;;;;;;24.83;10.57;;;14.90;99.90;;;;;;5034741;28;20064;-81
2022/06/05 07:08:28;;;;;;;22.70;10.35;;;14.90;99.90;;;;;;5034757;28;20014;-82
2022/06/05 07:10:54;;;;;;;23.67;9.77;;;14.90;99.90;;;;;;5034570;28;20064;-83
2022/06/05 07:13:20;;;;;;;24.13;10.70;;;14.90;99.90;;;;;;5034698;28;20049;-82
2022/06/05 07:15:45;;;;;;;27.23;10.93;;;14.90;99.90;;;;;;5034820;28;20025;-82
2022/06/05 07:18:11;;;;;;;22.27;10.85;;;15.00;99.90;;;;;;5034360;28;20378;-83
2022/06/05 07:20:41;;;;;;;30.95;11.57;;;15.00;99.90;;;;;;5034485;28;20029;-82
2022/06/05 07:23:07;;;;;;;26.90;11.63;;;14.90;99.90;;;;;;5034560;28;20021;-83
2022/06/05 07:25:35;;;;;;;25.15;9.25;;;14.90;99.90;;;;;;5033919;28;20030;-81
2022/06/05 07:28:01;;;;;;;32.30;11.68;;;15.00;99.90;;;;;;5034234;28;20088;-81
2022/06/05 07:30:27;;;;;;;33.55;11.82;;;15.10;99.90;;;;;;5034313;28;20438;-82
2022/06/05 07:32:53;;;;;;;29.55;11.15;;;15.20;99.90;;;;;;5034205;28;20017;-81
2022/06/05 07:35:20;;;;;;;24.67;11.07;;;15.30;99.90;;;;;;5016153;28;20037;-87
2022/06/05 07:37:46;;;;;;;24.92;10.23;;;15.40;99.90;;;;;;5034462;28;20056;-83
2022/06/05 07:40:13;;;;;;;29.65;11.65;;;15.40;99.90;;;;;;5033929;28;20025;-85
2022/06/05 07:42:41;;;;;;;21.35;10.10;;;15.70;99.90;;;;;;5034084;28;20750;-83
2022/06/05 07:45:08;;;;;;;24.75;10.13;;;15.90;99.90;;;;;;5033969;28;20582;-84
2022/06/05 07:47:34;;;;;;;23.42;11.30;;;16.10;99.90;;;;;;5033925;28;20029;-85
2022/06/05 07:50:00;;;;;;;24.60;10.35;;;16.30;99.90;;;;;;5034020;28;20037;-84
2022/06/05 07:55:11;;;;;;;24.25;10.13;;;16.30;99.90;;;;;;5033698;28;20052;-83
2022/06/05 07:57:37;;;;;;;21.13;9.88;;;16.50;99.90;;;;;;5034215;28;20020;-83
2022/06/05 08:00:07;;;;;;;21.77;10.30;;;16.70;99.90;;;;;;5033383;28;20029;-82
2022/06/05 08:02:34;;;;;;;25.63;10.40;;;16.80;99.90;;;;;;5033523;28;20484;-84
2022/06/05 08:05:00;;;;;;;23.55;10.25;;;16.90;99.90;;;;;;5033690;28;20033;-83
2022/06/05 08:07:29;;;;;;;21.00;9.70;;;17.10;99.90;;;;;;5033553;28;20486;-85
2022/06/05 08:09:55;;;;;;;29.20;10.95;;;17.10;99.90;;;;;;5033247;28;20553;-86
2022/06/05 08:12:23;;;;;;;25.17;10.40;;;17.10;99.90;;;;;;5033551;28;20029;-83
2022/06/05 08:14:50;;;;;;;21.40;9.80;;;17.20;99.90;;;;;;5033517;28;20105;-83
2022/06/05 08:17:20;;;;;;;24.92;9.40;;;17.20;99.90;;;;;;5033269;28;20025;-83
2022/06/05 08:19:46;;;;;;;22.23;10.95;;;17.20;99.90;;;;;;5033609;28;20025;-83
2022/06/05 08:22:15;;;;;;;23.15;10.15;;;17.10;99.90;;;;;;5033477;28;20027;-84
2022/06/05 08:24:41;;;;;;;20.63;10.57;;;16.80;99.90;;;;;;5033146;28;20108;-84
2022/06/05 08:27:12;;;;;;;23.60;10.30;;;16.80;99.90;;;;;;5033351;28;20521;-83
2022/06/05 08:29:39;;;;;;;19.15;8.95;;;16.80;99.90;;;;;;5033056;28;20048;-82
2022/06/05 08:32:05;;;;;;;18.60;9.45;;;16.80;99.90;;;;;;5033296;28;20033;-85
2022/06/05 08:34:31;;;;;;;23.52;9.73;;;16.80;99.90;;;;;;5033183;28;20053;-83
2022/06/05 08:43:03;;;;;;;23.80;9.75;;;16.40;99.90;;;;;;5033042;28;20024;-82
2022/06/05 08:45:38;;;;;;;17.73;9.20;;;16.60;99.90;;;;;;5015292;28;20116;-82
2022/06/05 08:48:10;;;;;;;22.00;9.38;;;16.70;99.90;;;;;;5032750;28;20018;-82
2022/06/05 08:50:48;;;;;;;16.92;9.00;;;16.80;99.90;;;;;;5031493;28;20029;-82
2022/06/05 08:53:39;;;;;;;18.35;10.27;;;16.80;99.90;;;;;;5033008;28;20044;-82
2022/06/05 08:56:07;;;;;;;21.20;10.27;;;16.80;99.90;;;;;;5032565;28;20026;-83
2022/06/05 08:58:41;;;;;;;20.75;9.40;;;16.80;99.90;;;;;;5032802;28;20018;-83
2022/06/05 09:01:30;;;;;;;22.58;9.90;;;17.00;99.90;;;;;;5032628;28;20478;-82
2022/06/05 09:04:17;;;;;;;23.08;9.90;;;17.10;99.90;;;;;;5032347;28;20371;-82
2022/06/05 09:06:50;;;;;;;21.85;11.20;;;17.00;99.90;;;;;;5032603;28;20030;-82
2022/06/05 09:09:24;;;;;;;22.98;9.63;;;17.20;99.90;;;;;;5032580;28;20025;-81
2022/06/05 09:11:54;;;;;;;21.40;9.50;;;17.20;99.90;;;;;;5032332;28;20041;-82
2022/06/05 09:14:57;;;;;;;25.48;10.70;;;17.40;99.90;;;;;;5032444;28;20470;-81
2022/06/05 09:17:25;;;;;;;24.20;11.05;;;17.50;99.90;;;;;;5032064;28;20475;-82
2022/06/05 09:19:53;;;;;;;18.77;9.68;;;17.70;99.90;;;;;;5032521;28;20033;-81
2022/06/05 09:22:59;;;;;;;22.90;10.35;;;17.90;99.90;;;;;;5032356;28;20061;-82
2022/06/05 09:25:25;;;;;;;20.30;10.60;;;18.00;99.90;;;;;;5001609;28;20037;-82
2022/06/05 09:28:36;;;;;;;17.45;8.85;;;18.00;99.90;;;;;;5014263;28;20196;-82
2022/06/05 09:31:25;;;;;;;26.90;10.60;;;18.20;99.90;;;;;;5028133;28;20095;-82
2022/06/05 09:33:54;;;;;;;21.38;9.40;;;18.20;99.90;;;;;;5032099;28;20025;-82
2022/06/05 09:36:24;;;;;;;21.73;11.18;;;18.20;99.90;;;;;;5032020;28;20036;-82
2022/06/05 09:39:00;;;;;;;22.17;10.50;;;17.70;99.90;;;;;;5032084;28;20034;-82
2022/06/05 09:41:29;;;;;;;22.25;10.68;;;17.60;99.90;;;;;;5031752;28;20037;-82
2022/06/05 09:44:23;;;;;;;20.02;11.18;;;17.60;99.90;;;;;;5032004;28;20107;-81
2022/06/05 09:47:01;;;;;;;20.80;10.48;;;17.40;99.90;;;;;;5032000;28;20025;-82
2022/06/05 09:49:38;;;;;;;23.90;10.82;;;17.40;99.90;;;;;;5031842;28;20032;-82
2022/06/05 09:52:32;;;;;;;22.60;9.98;;;17.50;99.90;;;;;;5014394;28;20064;-83
2022/06/05 09:55:01;;;;;;;;;;;17.60;99.90;;;;;;5028159;28;20034;-82
2022/06/05 10:00:43;;;;;;;26.98;10.77;;;17.80;99.90;;;;;;5031888;28;20036;-82
2022/06/05 10:03:16;;;;;;;25.33;11.88;;;17.80;99.90;;;;;;5013960;28;20113;-82
2022/06/05 10:06:03;;;;;;;19.42;9.70;;;18.00;99.90;;;;;;5031780;28;20029;-82
2022/06/05 10:08:38;;;;;;;21.90;10.40;;;18.20;99.90;;;;;;5032086;28;20040;-83
2022/06/05 10:11:24;;;;;;;20.33;9.80;;;18.30;99.90;;;;;;5031547;28;20038;-83
2022/06/05 10:14:17;;;;;;;22.38;10.43;;;18.20;99.90;;;;;;5031740;28;20029;-82
2022/06/05 10:16:58;;;;;;;16.35;9.75;;;18.30;99.90;;;;;;5031473;28;20434;-82
2022/06/05 10:19:29;;;;;;;15.93;9.82;;;18.60;99.90;;;;;;5031559;28;20029;-82
2022/06/05 10:22:05;;;;;;;18.83;9.90;;;18.70;99.90;;;;;;5031735;28;20030;-82
2022/06/05 10:25:03;;;;;;;19.52;10.13;;;18.90;99.90;;;;;;5033247;28;20034;-82
2022/06/05 10:27:29;;;;;;;17.15;9.95;;;19.00;99.90;;;;;;5035559;28;20147;-82
2022/06/05 10:29:59;;;;;;;22.17;11.15;;;19.10;99.90;;;;;;5035369;28;20029;-82
2022/06/05 10:32:41;;;;;;;18.92;9.93;;;19.10;99.90;;;;;;5035547;28;20029;-83
2022/06/05 10:35:26;;;;;;;22.35;10.65;;;19.00;99.90;;;;;;5035643;28;20052;-82
2022/06/05 10:38:11;;;;;;;21.23;10.32;;;18.90;99.90;;;;;;5035192;28;20055;-82
2022/06/05 10:40:42;;;;;;;17.80;11.48;;;18.90;99.90;;;;;;5035242;28;20029;-82
2022/06/05 10:43:19;;;;;;;21.00;12.32;;;18.70;99.90;;;;;;5017820;28;20025;-82
2022/06/05 10:45:49;;;;;;;21.80;11.20;;;18.20;99.90;;;;;;5035337;28;20029;-82
2022/06/05 10:48:29;;;;;;;27.05;11.18;;;18.10;99.90;;;;;;5035215;28;20014;-82
2022/06/05 10:51:32;;;;;;;18.77;10.27;;;18.10;99.90;;;;;;5035263;28;20429;-83
2022/06/05 10:54:23;;;;;;;21.92;11.20;;;18.10;99.90;;;;;;5035135;28;20021;-82
2022/06/05 10:56:58;;;;;;;23.90;11.45;;;18.00;99.90;;;;;;5034539;28;20041;-81
2022/06/05 10:59:57;;;;;;;22.48;11.07;;;18.10;99.90;;;;;;5034831;28;20022;-83
2022/06/05 11:02:44;;;;;;;19.98;9.98;;;18.10;99.90;;;;;;5034981;28;20529;-82
2022/06/05 11:05:30;;;;;;;25.92;12.23;;;18.00;99.90;;;;;;5034847;28;20026;-82
2022/06/05 11:08:23;;;;;;;22.42;11.30;;;18.00;99.90;;;;;;5035314;28;20022;-82
2022/06/05 11:14:20;;;;;;;20.25;11.05;;;18.10;99.90;;;;;;5035015;28;20059;-82
2022/06/05 11:16:54;;;;;;;24.60;10.85;;;18.20;99.90;;;;;;5034490;28;20055;-82
2022/06/05 11:19:43;;;;;;;19.02;10.90;;;18.30;99.90;;;;;;5034507;28;20503;-82
2022/06/05 11:22:13;;;;;;;22.00;10.80;;;18.40;99.90;;;;;;5016889;28;20017;-83
2022/06/05 11:25:33;;;;;;;24.10;11.13;;;18.30;99.90;;;;;;5034565;28;20029;-82
2022/06/05 11:28:13;;;;;;;17.33;10.48;;;18.20;99.90;;;;;;4973261;28;20121;-82
2022/06/05 11:30:46;;;;;;;23.20;9.98;;;18.20;99.90;;;;;;5027785;28;20053;-82
2022/06/05 11:33:18;;;;;;;26.90;13.20;;;18.20;99.90;;;;;;5034340;28;20045;-82
2022/06/05 11:35:55;;;;;;;26.05;11.00;;;18.10;99.90;;;;;;5033257;28;20036;-82
2022/06/05 11:38:36;;;;;;;19.13;10.82;;;18.10;99.90;;;;;;5034280;28;20042;-82
2022/06/05 11:41:11;;;;;;;19.38;11.30;;;18.30;99.90;;;;;;5034027;28;20022;-82
2022/06/05 11:43:39;;;;;;;22.95;11.07;;;18.60;99.90;;;;;;5034187;28;20029;-83
2022/06/05 11:46:11;;;;;;;20.30;10.43;;;18.60;99.90;;;;;;5034154;28;20029;-82
2022/06/05 11:48:44;;;;;;;22.38;11.73;;;18.50;99.90;;;;;;5034038;28;20022;-82
2022/06/05 11:51:21;;;;;;;20.63;11.80;;;18.50;99.90;;;;;;5016017;28;20041;-83
2022/06/05 11:54:13;;;;;;;22.52;11.00;;;18.50;99.90;;;;;;5016257;28;20032;-82
2022/06/05 11:56:58;;;;;;;18.63;10.23;;;18.40;99.90;;;;;;5025597;28;20064;-82
2022/06/05 11:59:39;;;;;;;24.33;11.55;;;18.30;99.90;;;;;;5033811;28;20048;-82
2022/06/05 12:02:08;;;;;;;21.63;11.60;;;18.40;99.90;;;;;;5016137;28;20021;-82
2022/06/05 12:04:56;;;;;;;27.30;11.65;;;18.40;99.90;;;;;;5033936;28;20022;-83
2022/06/05 12:07:25;;;;;;;22.05;10.45;;;18.50;99.90;;;;;;5033899;28;20017;-83
2022/06/05 12:09:59;;;;;;;19.85;10.48;;;18.50;99.90;;;;;;5033660;28;20120;-82
2022/06/05 12:12:37;;;;;;;19.52;10.07;;;18.80;99.90;;;;;;5033573;28;20037;-82
2022/06/05 12:15:21;;;;;;;22.08;10.60;;;19.10;99.90;;;;;;5033675;28;20024;-82
2022/06/05 12:18:01;;;;;;;22.13;11.13;;;19.30;99.90;;;;;;5033328;28;20030;-82
2022/06/05 12:20:40;;;;;;;19.85;11.07;;;18.90;99.90;;;;;;5033471;28;20127;-82
2022/06/05 12:23:16;;;;;;;21.33;10.93;;;18.90;99.90;;;;;;5033197;28;20079;-82
2022/06/05 12:26:09;;;;;;;19.70;10.68;;;19.10;99.90;;;;;;5032992;28;20029;-82
2022/06/05 12:28:42;;;;;;;17.25;10.20;;;19.20;99.90;;;;;;5033020;28;20024;-82
2022/06/05 12:31:25;;;;;;;18.75;9.82;;;19.40;99.90;;;;;;5033261;28;20034;-83
2022/06/05 12:34:09;;;;;;;19.63;9.82;;;19.50;99.90;;;;;;5015641;28;20080;-82
2022/06/05 12:37:01;;;;;;;22.75;10.30;;;19.60;99.90;;;;;;5033313;28;20021;-82
2022/06/05 12:39:40;;;;;;;;;;;19.50;99.90;;;;;;5010244;28;20128;-82
2022/06/05 12:42:26;;;;;;;18.83;9.38;;;19.40;99.90;;;;;;5032880;28;19905;-83
2022/06/05 12:44:53;;;;;;;23.52;10.07;;;19.20;99.90;;;;;;5015070;28;20429;-82
2022/06/05 12:47:38;;;;;;;20.77;10.32;;;19.10;99.90;;;;;;5032396;28;20481;-82
2022/06/05 12:50:28;;;;;;;19.45;10.50;;;18.90;99.90;;;;;;5032607;28;20025;-82
2022/06/05 12:53:09;;;;;;;23.00;11.18;;;18.90;99.90;;;;;;5032647;28;20123;-83
2022/06/05 12:55:41;;;;;;;24.48;12.13;;;18.90;99.90;;;;;;5032375;28;20508;-82
2022/06/05 12:58:20;;;;;;;22.60;10.85;;;19.10;99.90;;;;;;5032511;28;20029;-82
2022/06/05 13:01:02;;;;;;;17.40;9.18;;;19.20;99.90;;;;;;5032933;28;20025;-82
2022/06/05 13:03:47;;;;;;;22.50;11.15;;;19.30;99.90;;;;;;5032813;28;20025;-82
2022/06/05 13:06:36;;;;;;;21.40;11.90;;;19.50;99.90;;;;;;5021683;28;20508;-83
2022/06/05 13:09:26;;;;;;;24.10;12.48;;;19.70;99.90;;;;;;5038339;23;20045;-90
2022/06/05 13:12:01;;;;;;;21.45;11.10;;;20.10;99.90;;;;;;5016188;28;20083;-90
2022/06/05 13:14:51;;;;;;;19.02;10.63;;;20.50;99.90;;;;;;5034208;28;20021;-91
2022/06/05 13:17:34;;;;;;;22.70;11.25;;;20.50;99.90;;;;;;5034589;28;20030;-89
2022/06/05 13:20:35;;;;;;;20.13;10.63;;;20.60;99.90;;;;;;5014668;28;20048;-92
2022/06/05 13:23:20;;;;;;;22.10;11.27;;;20.70;99.90;;;;;;4998192;28;20482;-93
2022/06/05 13:26:01;;;;;;;23.20;11.68;;;20.60;99.90;;;;;;5015088;28;20065;-93